Time;durP1;ratioP1;P1;durP2;ratioP2;P2;SDS_P1;SDS_P2;PMS_P1;PMS_P2;Temp;Humidity;BMP_temperature;BMP_pressure;BME280_temperature;BME280_humidity;BME280_pressure;Samples;Min_cycle;Max_cycle;Signal;HPM_P1;HPM_P2
2022/01/06 00:01:55;;;;;;;3.55;1.20;;;18.60;50.00;;;;;;5069223;28;20386;-67
2022/01/06 00:04:21;;;;;;;4.20;1.30;;;18.60;50.00;;;;;;5079878;28;20391;-67
2022/01/06 00:06:47;;;;;;;4.53;1.33;;;18.60;49.80;;;;;;5080969;28;20025;-67
2022/01/06 00:09:16;;;;;;;5.60;1.27;;;18.70;49.70;;;;;;5090616;28;20043;-66
2022/01/06 00:11:43;;;;;;;6.00;1.52;;;18.60;49.70;;;;;;5091107;28;20040;-67
2022/01/06 00:17:16;;;;;;;6.38;1.50;;;18.50;50.60;;;;;;5088110;28;20047;-67
2022/01/06 00:25:10;;;;;;;4.18;1.10;;;18.40;49.80;;;;;;5088075;28;20078;-67
2022/01/06 00:27:35;;;;;;;4.53;1.40;;;18.40;49.80;;;;;;5081863;28;20032;-69
2022/01/06 00:30:01;;;;;;;2.40;0.93;;;18.40;49.80;;;;;;5084927;28;20049;-69
2022/01/06 00:32:27;;;;;;;5.85;1.20;;;18.40;49.80;;;;;;5084522;28;20093;-67
2022/01/06 00:34:52;;;;;;;5.40;1.50;;;18.40;49.80;;;;;;5086770;28;20024;-67
2022/01/06 00:37:18;;;;;;;4.55;1.30;;;18.40;49.90;;;;;;5066069;28;20028;-67
2022/01/06 00:39:44;;;;;;;4.22;1.15;;;18.30;49.80;;;;;;5089992;28;20161;-67
2022/01/06 00:42:10;;;;;;;3.72;1.13;;;18.40;49.90;;;;;;5078618;28;20032;-67
2022/01/06 00:44:35;;;;;;;3.83;1.27;;;18.30;49.80;;;;;;5075816;28;20025;-67
2022/01/06 00:47:01;;;;;;;3.60;1.20;;;18.30;49.80;;;;;;5090136;28;20459;-67
2022/01/06 00:49:27;;;;;;;4.32;0.98;;;18.30;49.80;;;;;;5079803;28;20484;-68
2022/01/06 00:51:52;;;;;;;3.50;1.08;;;18.30;49.90;;;;;;5046638;28;20519;-67
2022/01/06 00:54:18;;;;;;;3.97;1.23;;;18.30;49.80;;;;;;5078523;28;20042;-67
2022/01/06 00:56:44;;;;;;;4.65;1.20;;;18.30;49.80;;;;;;5084267;28;20437;-69
2022/01/06 00:59:09;;;;;;;3.13;0.93;;;18.30;49.80;;;;;;5088522;28;20392;-70
2022/01/06 01:01:35;;;;;;;1.92;0.90;;;18.20;49.80;;;;;;5077633;28;20028;-70
2022/01/06 01:04:01;;;;;;;3.63;0.95;;;18.20;49.80;;;;;;5082122;28;20040;-70
2022/01/06 01:06:27;;;;;;;2.92;1.10;;;18.20;49.80;;;;;;5066835;28;20368;-67
2022/01/06 01:08:52;;;;;;;2.60;0.98;;;18.20;49.80;;;;;;5089783;28;20111;-67
2022/01/06 01:11:18;;;;;;;4.25;1.13;;;18.20;49.80;;;;;;5080681;28;20417;-67
2022/01/06 01:13:55;;;;;;;2.90;1.17;;;18.10;49.70;;;;;;5065555;28;20480;-68
2022/01/06 01:16:29;;;;;;;2.90;1.02;;;18.10;49.70;;;;;;5081777;28;20097;-68
2022/01/06 01:18:59;;;;;;;4.00;1.38;;;18.10;49.70;;;;;;5088737;28;20038;-67
2022/01/06 01:21:27;;;;;;;3.20;1.00;;;18.10;49.70;;;;;;5085047;28;20025;-67
2022/01/06 01:23:56;;;;;;;2.13;0.80;;;18.10;49.70;;;;;;5078408;28;20104;-70
2022/01/06 01:26:23;;;;;;;4.10;1.02;;;18.10;49.80;;;;;;5079743;28;20032;-70
2022/01/06 01:28:50;;;;;;;3.75;0.90;;;18.10;49.80;;;;;;5077320;28;20031;-70
2022/01/06 01:33:44;;;;;;;4.50;0.70;;;18.00;49.70;;;;;;5074347;28;20036;-70
2022/01/06 01:36:11;;;;;;;4.10;1.15;;;18.00;50.70;;;;;;5088125;28;20036;-70
2022/01/06 01:38:37;;;;;;;2.60;1.13;;;18.00;49.70;;;;;;5074602;28;20373;-70
2022/01/06 01:41:07;;;;;;;2.47;0.90;;;18.00;49.70;;;;;;5080146;28;20021;-67
2022/01/06 01:43:34;;;;;;;2.33;0.98;;;18.00;49.70;;;;;;5085789;28;20024;-67
2022/01/06 01:46:09;;;;;;;3.03;0.90;;;18.00;49.70;;;;;;5078653;28;20401;-67
2022/01/06 01:48:38;;;;;;;2.53;1.02;;;17.90;49.70;;;;;;5072117;28;20115;-68
2022/01/06 01:51:04;;;;;;;3.15;0.80;;;17.90;49.60;;;;;;5059974;28;20028;-68
2022/01/06 01:53:29;;;;;;;4.25;1.00;;;17.90;49.60;;;;;;5080474;28;20025;-67
2022/01/06 01:55:55;;;;;;;3.83;1.08;;;17.90;49.60;;;;;;5062539;28;20035;-67
2022/01/06 01:58:22;;;;;;;5.20;1.15;;;17.90;49.60;;;;;;5092040;28;20135;-67
2022/01/06 02:00:47;;;;;;;4.50;1.00;;;17.90;49.70;;;;;;5083398;28;20028;-67
2022/01/06 02:03:13;;;;;;;2.45;0.77;;;17.80;49.50;;;;;;5092587;28;20352;-67
2022/01/06 02:05:39;;;;;;;4.45;1.23;;;17.80;49.50;;;;;;5080287;28;20055;-67
2022/01/06 02:08:05;;;;;;;2.08;0.95;;;17.80;49.50;;;;;;5089850;28;20059;-67
2022/01/06 02:10:32;;;;;;;2.95;0.90;;;17.80;49.60;;;;;;5076656;28;20021;-67
2022/01/06 02:13:00;;;;;;;3.20;1.00;;;17.80;49.60;;;;;;5068760;28;20097;-68
2022/01/06 02:15:26;;;;;;;2.80;0.80;;;17.80;49.50;;;;;;5072258;28;20030;-68
2022/01/06 02:17:52;;;;;;;2.65;0.80;;;17.80;49.60;;;;;;5072256;28;20411;-68
2022/01/06 02:20:21;;;;;;;3.00;1.00;;;17.70;49.50;;;;;;5081067;28;20029;-68
2022/01/06 02:22:47;;;;;;;2.63;0.93;;;17.70;49.50;;;;;;5089446;28;20443;-68
2022/01/06 02:25:13;;;;;;;3.47;1.10;;;17.70;49.50;;;;;;5089644;28;20515;-67
2022/01/06 02:27:39;;;;;;;3.38;1.10;;;17.70;49.50;;;;;;5087077;28;20040;-68
2022/01/06 02:30:06;;;;;;;4.10;0.80;;;17.70;49.50;;;;;;5060665;28;20518;-68
2022/01/06 02:32:32;;;;;;;3.53;0.90;;;17.70;49.50;;;;;;5084303;28;20090;-68
2022/01/06 02:35:02;;;;;;;2.15;0.90;;;17.60;49.40;;;;;;5069523;28;20036;-67
2022/01/06 02:37:27;;;;;;;3.63;1.10;;;17.60;49.40;;;;;;5063558;28;20392;-70
2022/01/06 02:39:53;;;;;;;2.78;1.10;;;17.60;49.40;;;;;;5070645;28;20089;-70
2022/01/06 02:42:18;;;;;;;2.38;0.70;;;17.60;49.40;;;;;;5074927;28;20029;-70
2022/01/06 02:44:44;;;;;;;3.05;0.90;;;17.60;49.50;;;;;;5077870;28;20384;-70
2022/01/06 02:47:10;;;;;;;3.25;0.80;;;17.60;49.40;;;;;;5086100;28;20031;-70
2022/01/06 02:49:35;;;;;;;3.03;0.93;;;17.60;49.50;;;;;;5081280;28;20038;-71
2022/01/06 02:52:01;;;;;;;3.30;1.10;;;17.60;49.40;;;;;;5075857;28;20032;-71
2022/01/06 02:54:27;;;;;;;3.00;0.70;;;17.60;49.50;;;;;;5060657;28;20039;-71
2022/01/06 02:56:53;;;;;;;1.95;0.80;;;17.50;49.40;;;;;;5079499;28;20037;-71
2022/01/06 02:59:19;;;;;;;3.63;1.10;;;17.50;49.40;;;;;;5070005;28;20452;-68
2022/01/06 03:01:45;;;;;;;4.38;1.23;;;17.50;49.50;;;;;;5087672;28;20107;-68
2022/01/06 03:04:12;;;;;;;3.50;1.00;;;17.50;49.40;;;;;;5088343;28;20107;-67
2022/01/06 03:06:39;;;;;;;3.90;1.05;;;17.50;49.40;;;;;;5086049;28;20539;-67
2022/01/06 03:09:06;;;;;;;4.38;1.02;;;17.50;49.50;;;;;;5080713;28;20115;-68
2022/01/06 03:11:33;;;;;;;1.85;0.55;;;17.50;49.50;;;;;;5084901;28;20412;-70
2022/01/06 03:14:00;;;;;;;3.63;0.90;;;17.50;49.50;;;;;;5062762;28;20460;-71
2022/01/06 03:16:26;;;;;;;2.42;0.70;;;17.40;49.40;;;;;;5075270;28;20044;-71
2022/01/06 03:18:52;;;;;;;2.17;0.73;;;17.40;49.40;;;;;;5081822;28;20029;-71
2022/01/06 03:21:17;;;;;;;2.53;0.90;;;17.40;49.40;;;;;;5080598;28;20084;-71
2022/01/06 03:23:43;;;;;;;3.53;0.75;;;17.40;49.40;;;;;;5082001;28;20081;-71
2022/01/06 03:26:09;;;;;;;3.25;0.70;;;17.40;49.40;;;;;;5092833;28;20029;-71
2022/01/06 03:28:35;;;;;;;5.20;1.00;;;17.40;49.40;;;;;;5050716;28;20044;-68
2022/01/06 03:31:01;;;;;;;2.70;0.63;;;17.40;49.40;;;;;;5068471;28;20038;-68
2022/01/06 03:33:26;;;;;;;3.00;1.08;;;17.30;49.40;;;;;;5072503;28;20024;-68
2022/01/06 03:35:52;;;;;;;2.28;0.70;;;17.30;49.40;;;;;;5089737;28;20393;-68
2022/01/06 03:38:18;;;;;;;2.90;0.90;;;17.30;49.40;;;;;;5078622;28;20095;-67
2022/01/06 03:40:44;;;;;;;3.58;0.80;;;17.30;49.40;;;;;;5074369;28;20119;-70
2022/01/06 03:43:10;;;;;;;2.53;1.00;;;17.30;49.40;;;;;;5079694;28;20495;-71
2022/01/06 03:45:36;;;;;;;3.20;1.05;;;17.30;49.40;;;;;;5076302;28;20033;-71
2022/01/06 03:48:03;;;;;;;1.85;0.85;;;17.30;49.40;;;;;;5080089;28;20085;-71
2022/01/06 03:50:30;;;;;;;3.17;0.85;;;17.30;49.40;;;;;;5084890;28;20048;-71
2022/01/06 03:52:56;;;;;;;2.85;0.90;;;17.30;49.40;;;;;;5083310;28;20028;-71
2022/01/06 03:55:21;;;;;;;1.48;0.68;;;17.30;49.40;;;;;;5080742;28;20776;-71
2022/01/06 03:57:47;;;;;;;3.38;0.77;;;17.20;49.30;;;;;;5085847;28;20035;-71
2022/01/06 04:00:18;;;;;;;1.52;0.68;;;17.20;49.30;;;;;;5089323;28;20027;-71
2022/01/06 04:02:45;;;;;;;3.42;0.77;;;17.20;49.40;;;;;;5065262;28;20028;-71
2022/01/06 04:05:11;;;;;;;3.45;0.88;;;17.20;49.40;;;;;;5081705;28;20081;-71
2022/01/06 04:07:38;;;;;;;2.10;0.63;;;17.20;49.40;;;;;;5079438;28;20024;-71
2022/01/06 04:10:05;;;;;;;3.08;0.90;;;17.20;49.40;;;;;;5085853;28;20020;-71
2022/01/06 04:12:34;;;;;;;2.65;0.88;;;17.20;49.40;;;;;;5084661;28;20036;-71
2022/01/06 04:15:00;;;;;;;2.35;0.63;;;17.20;49.40;;;;;;5062248;28;20073;-71
2022/01/06 04:17:26;;;;;;;1.70;0.60;;;17.20;49.40;;;;;;5089108;28;20028;-71
2022/01/06 04:19:52;;;;;;;2.03;0.50;;;17.20;49.40;;;;;;5080870;28;20029;-71
2022/01/06 04:22:17;;;;;;;1.48;0.63;;;17.10;49.40;;;;;;5073615;28;20031;-71
2022/01/06 04:24:44;;;;;;;3.40;0.88;;;17.10;49.40;;;;;;5090689;28;20414;-71
2022/01/06 04:27:10;;;;;;;2.58;0.90;;;17.10;49.40;;;;;;5071908;28;20033;-71
2022/01/06 04:29:36;;;;;;;4.70;1.17;;;17.10;49.40;;;;;;5081609;28;20375;-68
2022/01/06 04:32:02;;;;;;;2.67;0.70;;;17.10;49.40;;;;;;5075905;28;20028;-68
2022/01/06 04:34:28;;;;;;;2.55;0.90;;;17.10;49.40;;;;;;5081356;28;20628;-67
2022/01/06 04:36:56;;;;;;;5.10;1.00;;;17.10;49.30;;;;;;5078299;28;20033;-67
2022/01/06 04:39:22;;;;;;;3.08;1.00;;;17.10;49.40;;;;;;5071984;28;20127;-67
2022/01/06 04:41:48;;;;;;;3.38;1.00;;;17.00;49.30;;;;;;5056901;28;20060;-69
2022/01/06 04:44:14;;;;;;;3.17;1.00;;;17.00;49.30;;;;;;5078678;28;20380;-70
2022/01/06 04:46:40;;;;;;;4.53;1.02;;;17.00;49.30;;;;;;5067516;28;20040;-70
2022/01/06 04:49:05;;;;;;;3.35;0.88;;;17.00;49.30;;;;;;5090845;28;20089;-70
2022/01/06 04:51:31;;;;;;;3.05;0.68;;;17.00;49.30;;;;;;5076123;28;20368;-70
2022/01/06 04:53:57;;;;;;;3.83;0.80;;;17.00;49.30;;;;;;5079999;28;20534;-70
2022/01/06 04:56:23;;;;;;;3.22;0.80;;;17.00;49.30;;;;;;5060892;28;20044;-70
2022/01/06 04:58:49;;;;;;;2.28;0.80;;;17.00;49.40;;;;;;5089930;28;20052;-70
2022/01/06 05:01:15;;;;;;;2.53;0.80;;;17.00;49.40;;;;;;5086417;28;20056;-70
2022/01/06 05:03:41;;;;;;;3.88;1.30;;;16.90;49.40;;;;;;5081639;28;20103;-67
2022/01/06 05:06:07;;;;;;;2.35;0.85;;;16.90;49.30;;;;;;5081631;28;20171;-67
2022/01/06 05:08:33;;;;;;;2.08;0.57;;;16.90;49.30;;;;;;5074582;28;20039;-67
2022/01/06 05:10:58;;;;;;;3.45;0.90;;;16.90;49.40;;;;;;5081833;28;20376;-67
2022/01/06 05:13:24;;;;;;;4.22;1.08;;;16.90;49.40;;;;;;5090802;28;20485;-67
2022/01/06 05:15:50;;;;;;;2.35;0.90;;;16.90;49.40;;;;;;5074526;28;20033;-67
2022/01/06 05:18:15;;;;;;;2.72;0.80;;;16.90;49.40;;;;;;5082954;28;20028;-70
2022/01/06 05:20:42;;;;;;;2.05;0.75;;;16.90;49.40;;;;;;5067556;28;20033;-71
2022/01/06 05:23:12;;;;;;;4.50;0.80;;;16.80;49.30;;;;;;5079461;28;20023;-71
2022/01/06 05:25:39;;;;;;;2.25;0.98;;;16.80;49.40;;;;;;5086023;28;20365;-71
2022/01/06 05:28:05;;;;;;;1.92;0.52;;;16.80;49.30;;;;;;5090677;28;20408;-71
2022/01/06 05:30:31;;;;;;;2.72;0.70;;;16.80;49.30;;;;;;5079796;28;20051;-70
2022/01/06 05:32:57;;;;;;;2.90;0.50;;;16.80;49.30;;;;;;5082318;28;20032;-70
2022/01/06 05:35:22;;;;;;;3.75;0.80;;;16.80;49.30;;;;;;5075414;28;20039;-70
2022/01/06 05:37:48;;;;;;;1.70;0.73;;;16.80;49.40;;;;;;5073570;28;20029;-70
2022/01/06 05:40:14;;;;;;;4.88;0.88;;;16.80;49.40;;;;;;5070178;28;20028;-70
2022/01/06 05:42:41;;;;;;;1.60;0.65;;;16.80;49.30;;;;;;5082918;28;20107;-67
2022/01/06 05:45:08;;;;;;;3.17;1.00;;;16.80;49.30;;;;;;5083400;28;20025;-67
2022/01/06 05:47:33;;;;;;;2.65;0.80;;;16.80;49.40;;;;;;5072628;28;20029;-68
2022/01/06 05:49:59;;;;;;;3.75;0.60;;;16.70;49.30;;;;;;5078574;28;20035;-68
2022/01/06 05:52:25;;;;;;;3.33;0.90;;;16.80;49.30;;;;;;5083993;28;20106;-67
2022/01/06 05:54:50;;;;;;;3.60;0.95;;;16.70;49.40;;;;;;5059021;28;20063;-67
2022/01/06 05:57:17;;;;;;;2.95;0.85;;;16.70;49.30;;;;;;5082161;28;20030;-67
2022/01/06 05:59:43;;;;;;;2.40;0.73;;;16.70;49.30;;;;;;5084229;28;20155;-70
2022/01/06 06:02:09;;;;;;;2.38;0.55;;;16.70;49.40;;;;;;5045150;28;20115;-70
2022/01/06 06:04:34;;;;;;;2.20;0.90;;;16.70;49.40;;;;;;5089844;28;20060;-70
2022/01/06 06:07:00;;;;;;;2.97;0.50;;;16.70;49.30;;;;;;5082765;28;20036;-70
2022/01/06 06:09:26;;;;;;;1.27;0.70;;;16.70;49.30;;;;;;5083673;28;20047;-70
2022/01/06 06:11:51;;;;;;;2.22;0.75;;;16.70;49.40;;;;;;5072571;28;20044;-70
2022/01/06 06:14:17;;;;;;;2.95;0.75;;;16.70;49.40;;;;;;5086998;28;20024;-70
2022/01/06 06:16:42;;;;;;;1.73;0.60;;;16.60;49.30;;;;;;5080487;28;20074;-71
2022/01/06 06:19:08;;;;;;;2.45;0.65;;;16.60;49.30;;;;;;5092994;28;20029;-71
2022/01/06 06:21:34;;;;;;;3.63;0.98;;;16.60;49.30;;;;;;5065047;28;20036;-71
2022/01/06 06:23:59;;;;;;;2.17;0.60;;;16.60;49.30;;;;;;5090686;28;20025;-71
2022/01/06 06:26:25;;;;;;;1.90;0.73;;;16.60;49.30;;;;;;5069961;28;20036;-71
2022/01/06 06:28:51;;;;;;;2.67;0.82;;;16.60;49.30;;;;;;5072546;28;20020;-71
2022/01/06 06:31:16;;;;;;;3.65;0.63;;;16.60;49.30;;;;;;5085114;28;20036;-71
2022/01/06 06:33:42;;;;;;;3.22;0.90;;;16.60;49.30;;;;;;5077192;28;20418;-71
2022/01/06 06:36:07;;;;;;;1.95;0.73;;;16.60;49.30;;;;;;5074756;28;20057;-71
2022/01/06 06:38:33;;;;;;;4.13;0.93;;;16.60;49.30;;;;;;5091551;28;20065;-71
2022/01/06 06:40:59;;;;;;;1.75;0.57;;;16.60;49.30;;;;;;5078740;28;20024;-68
2022/01/06 06:43:24;;;;;;;2.90;0.82;;;16.50;49.20;;;;;;5088364;28;20490;-67
2022/01/06 06:45:50;;;;;;;2.75;1.20;;;16.50;49.20;;;;;;5072512;28;20032;-67
2022/01/06 06:48:16;;;;;;;5.32;0.80;;;16.50;49.20;;;;;;5076468;28;20033;-68
2022/01/06 06:50:41;;;;;;;2.10;0.88;;;16.50;49.30;;;;;;5058370;28;20067;-67
2022/01/06 06:53:07;;;;;;;2.97;0.73;;;16.50;49.20;;;;;;5087366;28;20020;-67
2022/01/06 06:55:33;;;;;;;2.50;1.02;;;16.50;49.20;;;;;;5057211;28;20083;-68
2022/01/06 06:57:59;;;;;;;2.58;0.60;;;16.50;49.30;;;;;;5085088;28;20491;-69
2022/01/06 07:00:24;;;;;;;3.38;0.85;;;16.50;49.30;;;;;;5075678;28;20018;-69
2022/01/06 07:02:51;;;;;;;1.98;0.60;;;16.50;49.30;;;;;;5081968;28;20029;-69
2022/01/06 07:05:17;;;;;;;3.50;0.70;;;16.50;49.30;;;;;;5084198;28;20039;-68
2022/01/06 07:07:43;;;;;;;1.98;0.80;;;16.50;49.30;;;;;;5063226;28;20025;-66
2022/01/06 07:10:09;;;;;;;2.85;1.05;;;16.50;49.20;;;;;;5082570;28;20033;-68
2022/01/06 07:12:42;;;;;;;3.13;1.20;;;16.40;48.70;;;;;;5057433;28;20044;-68
2022/01/06 07:15:10;;;;;;;5.72;1.35;;;15.90;44.70;;;;;;5080466;28;20028;-69
2022/01/06 07:17:36;;;;;;;6.03;1.73;;;15.40;45.10;;;;;;5086462;28;20077;-70
2022/01/06 07:20:02;;;;;;;5.35;1.67;;;14.90;45.90;;;;;;5083291;28;20127;-69
2022/01/06 07:22:27;;;;;;;4.68;1.35;;;14.60;46.40;;;;;;5079220;28;20096;-68
2022/01/06 07:24:53;;;;;;;5.93;1.65;;;14.30;47.00;;;;;;5084883;28;20177;-69
2022/01/06 07:27:18;;;;;;;7.07;1.73;;;14.00;48.00;;;;;;5076159;28;20118;-68
2022/01/06 07:29:44;;;;;;;9.00;1.90;;;13.80;48.00;;;;;;5087717;28;20036;-69
2022/01/06 07:32:10;;;;;;;5.72;1.50;;;13.60;48.10;;;;;;5061785;28;20037;-69
2022/01/06 07:34:35;;;;;;;6.88;1.63;;;13.40;48.20;;;;;;5089612;28;20044;-69
2022/01/06 07:37:02;;;;;;;7.38;1.90;;;13.30;48.40;;;;;;5052772;28;20044;-69
2022/01/06 07:39:28;;;;;;;4.35;1.30;;;13.10;48.70;;;;;;5068120;28;20082;-67
2022/01/06 07:41:53;;;;;;;5.47;1.40;;;13.00;50.00;;;;;;5085097;28;20037;-66
2022/01/06 07:44:19;;;;;;;3.22;1.33;;;13.20;51.30;;;;;;5091389;28;20024;-66
2022/01/06 07:46:46;;;;;;;4.80;1.70;;;13.60;51.30;;;;;;5056948;28;20063;-66
2022/01/06 07:49:12;;;;;;;5.43;1.42;;;13.80;50.80;;;;;;5058066;28;20025;-67
2022/01/06 07:51:38;;;;;;;6.57;1.70;;;14.10;50.60;;;;;;5084876;28;20032;-66
2022/01/06 07:54:05;;;;;;;4.45;1.45;;;14.40;50.50;;;;;;5082599;28;20418;-66
2022/01/06 07:56:31;;;;;;;8.52;1.50;;;14.70;50.50;;;;;;5078678;28;20059;-67
2022/01/06 07:58:57;;;;;;;4.88;1.27;;;14.90;50.20;;;;;;5081536;28;20511;-66
2022/01/06 08:01:23;;;;;;;3.70;1.13;;;15.10;50.00;;;;;;5092384;28;20051;-68
2022/01/06 08:03:48;;;;;;;4.85;1.38;;;15.30;49.80;;;;;;5092837;28;20414;-67
2022/01/06 08:06:15;;;;;;;3.33;1.20;;;15.50;49.50;;;;;;5093476;28;20049;-67
2022/01/06 08:08:41;;;;;;;6.40;1.30;;;15.70;49.30;;;;;;5072323;28;20361;-67
2022/01/06 08:11:07;;;;;;;5.10;1.13;;;15.90;49.20;;;;;;5092729;28;20024;-67
2022/01/06 08:13:33;;;;;;;4.55;1.40;;;16.10;48.90;;;;;;5086786;28;20177;-67
2022/01/06 08:15:59;;;;;;;4.00;0.98;;;16.20;48.60;;;;;;5088218;28;20020;-66
2022/01/06 08:18:25;;;;;;;3.15;1.15;;;16.40;48.40;;;;;;5093504;28;20048;-66
2022/01/06 08:20:51;;;;;;;6.00;1.30;;;16.50;49.10;;;;;;5092903;28;20030;-67
2022/01/06 08:23:17;;;;;;;3.83;1.10;;;16.70;48.00;;;;;;5093998;28;20028;-68
2022/01/06 08:25:42;;;;;;;3.20;1.10;;;16.80;47.80;;;;;;5091099;28;20548;-68
2022/01/06 08:28:08;;;;;;;4.00;1.00;;;17.00;48.40;;;;;;5091177;28;20052;-68
2022/01/06 08:30:34;;;;;;;4.25;1.15;;;17.10;47.20;;;;;;5085720;28;20107;-68
2022/01/06 08:33:00;;;;;;;2.85;1.13;;;17.20;46.90;;;;;;5090452;28;20465;-69
2022/01/06 08:35:27;;;;;;;5.03;1.20;;;17.30;46.40;;;;;;5085737;28;20029;-68
2022/01/06 08:37:53;;;;;;;6.22;1.67;;;17.40;46.10;;;;;;5090013;28;20024;-68
2022/01/06 08:40:19;;;;;;;3.92;1.10;;;17.60;45.80;;;;;;5085626;28;20039;-68
2022/01/06 08:42:48;;;;;;;4.95;1.23;;;17.70;45.40;;;;;;5071778;28;20491;-68
2022/01/06 08:45:16;;;;;;;5.60;1.42;;;17.80;45.10;;;;;;5077875;28;20031;-70
2022/01/06 08:47:42;;;;;;;3.03;1.10;;;17.90;45.00;;;;;;5076446;28;20099;-67
2022/01/06 08:50:08;;;;;;;4.18;1.48;;;18.00;44.90;;;;;;5083710;28;20100;-70
2022/01/06 08:52:35;;;;;;;2.85;1.30;;;18.10;44.70;;;;;;5074730;28;20032;-69
2022/01/06 08:55:00;;;;;;;2.13;1.00;;;18.20;44.50;;;;;;5083038;28;20398;-69
2022/01/06 08:57:26;;;;;;;3.50;1.20;;;18.30;44.40;;;;;;5092539;28;20028;-67
2022/01/06 08:59:52;;;;;;;4.28;1.17;;;18.40;44.30;;;;;;5092677;28;20048;-66
2022/01/06 09:02:17;;;;;;;2.63;1.27;;;18.50;44.10;;;;;;5073842;28;20061;-69
2022/01/06 09:04:43;;;;;;;4.68;1.67;;;18.50;43.80;;;;;;5090280;28;20458;-68
2022/01/06 09:07:09;;;;;;;3.33;1.35;;;18.60;43.40;;;;;;5089883;28;20145;-68
2022/01/06 09:09:36;;;;;;;5.00;1.35;;;18.70;43.40;;;;;;5092578;28;20077;-67
2022/01/06 09:12:02;;;;;;;4.90;1.90;;;18.80;43.40;;;;;;5087059;28;20431;-65
2022/01/06 09:14:27;;;;;;;3.80;1.60;;;18.80;42.70;;;;;;5075462;28;20101;-67
2022/01/06 09:16:54;;;;;;;7.22;1.92;;;18.90;42.40;;;;;;5074842;28;20032;-68
2022/01/06 09:19:20;;;;;;;4.55;1.95;;;18.90;42.60;;;;;;5054052;28;20411;-69
2022/01/06 09:21:45;;;;;;;6.07;1.70;;;19.00;44.00;;;;;;5083958;28;20020;-70
2022/01/06 09:24:11;;;;;;;3.95;1.88;;;19.10;45.30;;;;;;5087479;28;20046;-67
2022/01/06 09:26:37;;;;;;;4.32;1.70;;;19.20;45.20;;;;;;5090616;28;20024;-68
2022/01/06 09:29:05;;;;;;;4.10;2.03;;;19.30;44.90;;;;;;5087311;28;20086;-66
2022/01/06 09:31:32;;;;;;;4.20;1.63;;;19.30;44.70;;;;;;5092228;28;20035;-67
2022/01/06 09:33:59;;;;;;;5.47;1.80;;;19.40;44.50;;;;;;5089609;28;20067;-67
2022/01/06 09:36:27;;;;;;;4.55;1.88;;;19.50;44.10;;;;;;5092481;28;20019;-66
2022/01/06 09:38:54;;;;;;;4.50;1.70;;;19.60;43.90;;;;;;5093920;28;20031;-64
2022/01/06 09:41:20;;;;;;;3.58;1.42;;;19.60;43.60;;;;;;5098376;28;20024;-67
2022/01/06 09:43:48;;;;;;;4.70;1.95;;;19.70;43.40;;;;;;5076033;28;20032;-67
2022/01/06 09:46:13;;;;;;;3.85;1.67;;;19.80;43.10;;;;;;5095301;28;20027;-65
2022/01/06 09:48:40;;;;;;;4.05;1.90;;;19.80;42.90;;;;;;5099106;28;20032;-65
2022/01/06 09:51:08;;;;;;;3.63;1.73;;;19.90;42.70;;;;;;5100017;28;20420;-67
2022/01/06 09:53:33;;;;;;;5.05;1.85;;;19.90;42.40;;;;;;5083257;28;20157;-67
2022/01/06 09:55:59;;;;;;;4.40;1.90;;;20.00;42.30;;;;;;5074749;28;20430;-65
2022/01/06 09:58:27;;;;;;;3.40;1.42;;;20.10;42.20;;;;;;5074783;28;20049;-65
2022/01/06 10:00:55;;;;;;;5.88;1.45;;;20.10;41.90;;;;;;5088078;28;20016;-65
2022/01/06 10:03:32;;;;;;;3.58;1.70;;;20.10;41.70;;;;;;5085962;28;20027;-65
2022/01/06 10:06:12;;;;;;;5.28;2.00;;;20.20;41.60;;;;;;5083074;28;20024;-65
2022/01/06 10:08:38;;;;;;;4.50;1.85;;;20.30;41.30;;;;;;5074287;28;20044;-65
2022/01/06 10:11:15;;;;;;;5.07;1.75;;;20.30;41.20;;;;;;5091887;28;20099;-65
2022/01/06 10:13:45;;;;;;;3.63;1.67;;;20.40;40.80;;;;;;5088657;28;20033;-66
2022/01/06 10:16:17;;;;;;;5.07;1.77;;;20.40;40.80;;;;;;5096375;28;20490;-65
2022/01/06 10:18:57;;;;;;;3.25;1.80;;;20.50;40.60;;;;;;5092531;28;20025;-66
2022/01/06 10:21:23;;;;;;;3.42;1.45;;;20.60;40.20;;;;;;5093503;28;20025;-67
2022/01/06 10:23:59;;;;;;;4.28;1.58;;;20.60;40.30;;;;;;5089986;28;20092;-67
2022/01/06 10:26:25;;;;;;;4.18;1.70;;;20.70;39.90;;;;;;5082271;28;20021;-67
2022/01/06 10:28:51;;;;;;;3.47;1.52;;;20.70;39.90;;;;;;5082319;28;20020;-67
2022/01/06 10:31:21;;;;;;;4.47;1.60;;;20.80;39.90;;;;;;5071548;28;20120;-68
2022/01/06 10:33:47;;;;;;;4.05;1.88;;;20.80;39.70;;;;;;5074255;28;20036;-68
2022/01/06 10:36:12;;;;;;;4.28;1.73;;;20.90;39.70;;;;;;5064700;28;20032;-68
2022/01/06 10:38:38;;;;;;;5.30;1.73;;;20.90;39.50;;;;;;5091574;28;20586;-68
2022/01/06 10:41:16;;;;;;;4.18;1.92;;;20.90;39.40;;;;;;5069608;28;20060;-67
2022/01/06 10:43:50;;;;;;;4.72;1.83;;;21.00;39.00;;;;;;5056991;28;20025;-67
2022/01/06 10:46:44;;;;;;;3.55;1.65;;;21.00;39.10;;;;;;5077325;28;20009;-67
2022/01/06 10:49:16;;;;;;;5.30;1.92;;;21.00;39.10;;;;;;5084922;28;20029;-68
2022/01/06 10:51:44;;;;;;;5.75;2.20;;;21.00;39.10;;;;;;5094456;28;20024;-68
2022/01/06 10:54:15;;;;;;;5.85;1.83;;;21.00;39.10;;;;;;5088560;28;20027;-68
2022/01/06 10:56:42;;;;;;;4.15;1.90;;;21.00;39.00;;;;;;5096239;28;20032;-66
2022/01/06 10:59:07;;;;;;;3.97;2.03;;;21.00;39.00;;;;;;5078472;28;20489;-67
2022/01/06 11:01:35;;;;;;;4.30;2.08;;;21.10;39.00;;;;;;5082606;28;20063;-67
2022/01/06 11:04:02;;;;;;;3.65;1.80;;;21.10;39.00;;;;;;5092170;28;20471;-65
2022/01/06 11:06:30;;;;;;;5.25;1.75;;;21.10;39.00;;;;;;5096776;28;20020;-65
2022/01/06 11:08:56;;;;;;;4.82;1.70;;;21.10;39.00;;;;;;5092919;28;20341;-65
2022/01/06 11:12:26;;;;;;;5.38;2.20;;;21.10;39.00;;;;;;5086385;28;20033;-66
2022/01/06 11:14:15;;;;;;;4.63;2.03;;;21.10;38.80;;;;;;5083380;28;20140;-65
2022/01/06 11:16:42;;;;;;;5.00;1.98;;;21.10;38.90;;;;;;5096888;28;20483;-65
2022/01/06 11:19:09;;;;;;;5.10;2.05;;;21.10;38.90;;;;;;5071824;28;20105;-65
2022/01/06 11:21:44;;;;;;;4.85;2.22;;;21.10;39.10;;;;;;5095747;28;20348;-66
2022/01/06 11:24:16;;;;;;;4.60;2.15;;;21.10;38.80;;;;;;5087294;28;20027;-65
2022/01/06 11:26:44;;;;;;;5.05;1.90;;;21.10;38.90;;;;;;5079996;28;20027;-67
2022/01/06 11:29:11;;;;;;;5.03;1.75;;;21.10;38.90;;;;;;5090761;28;20048;-67
2022/01/06 11:31:43;;;;;;;3.95;1.80;;;21.10;38.90;;;;;;5091578;28;20039;-68
2022/01/06 11:34:14;;;;;;;7.18;2.45;;;21.10;38.80;;;;;;5087465;28;20032;-69
2022/01/06 11:36:40;;;;;;;5.40;2.30;;;21.20;39.10;;;;;;5064865;28;20040;-68
2022/01/06 11:39:08;;;;;;;5.53;2.22;;;21.10;39.10;;;;;;5076197;28;20024;-68
2022/01/06 11:41:40;;;;;;;6.13;2.10;;;21.10;39.10;;;;;;5093303;28;20032;-67
2022/01/06 11:44:29;;;;;;;4.45;1.77;;;21.10;39.00;;;;;;5067785;28;20066;-68
2022/01/06 11:46:57;;;;;;;5.68;1.95;;;21.10;38.90;;;;;;5054751;28;20024;-68
2022/01/06 11:49:34;;;;;;;5.20;1.73;;;21.10;39.10;;;;;;5078244;28;20028;-68
2022/01/06 11:52:09;;;;;;;6.28;2.05;;;21.20;38.80;;;;;;5086196;28;20073;-68
2022/01/06 11:54:49;;;;;;;8.23;2.45;;;21.20;38.80;;;;;;5079923;28;20033;-65
2022/01/06 11:57:31;;;;;;;3.65;1.73;;;21.30;38.80;;;;;;5087738;28;20036;-65
2022/01/06 11:59:58;;;;;;;3.95;2.03;;;21.30;38.70;;;;;;5089335;28;20032;-66
2022/01/06 12:02:24;;;;;;;5.47;2.15;;;21.30;38.60;;;;;;5064094;28;20085;-65
2022/01/06 12:04:59;;;;;;;4.60;1.92;;;21.30;38.50;;;;;;5075106;28;20115;-64
2022/01/06 12:07:26;;;;;;;5.15;2.20;;;21.40;38.20;;;;;;5083134;28;20070;-66
2022/01/06 12:10:00;;;;;;;4.18;2.10;;;21.40;38.40;;;;;;5077647;28;20580;-65
2022/01/06 12:12:36;;;;;;;4.80;1.90;;;21.40;38.30;;;;;;5086057;28;20028;-67
2022/01/06 12:15:20;;;;;;;6.25;1.95;;;21.50;38.40;;;;;;5081994;28;20028;-67
2022/01/06 12:17:53;;;;;;;3.55;1.88;;;21.50;38.20;;;;;;5088191;28;20032;-67
2022/01/06 12:20:25;;;;;;;4.88;1.88;;;21.50;38.50;;;;;;5078091;28;20042;-66
2022/01/06 12:22:52;;;;;;;4.22;1.70;;;21.50;38.30;;;;;;5078212;28;20382;-65
2022/01/06 12:25:25;;;;;;;5.70;2.05;;;21.50;38.50;;;;;;5091300;28;20514;-66
2022/01/06 12:27:55;;;;;;;5.30;1.80;;;21.50;38.50;;;;;;5076963;28;20075;-65
2022/01/06 12:30:26;;;;;;;5.53;2.33;;;21.60;38.70;;;;;;5094265;28;20467;-64
2022/01/06 12:33:09;;;;;;;7.88;2.00;;;21.60;38.60;;;;;;5089253;28;20036;-66
2022/01/06 12:35:35;;;;;;;5.10;2.30;;;21.60;38.20;;;;;;5093621;28;20020;-66
2022/01/06 12:38:00;;;;;;;5.03;1.90;;;21.60;38.20;;;;;;5084220;28;20089;-66
2022/01/06 12:40:46;;;;;;;6.53;2.17;;;21.60;38.30;;;;;;5079732;28;20233;-66
2022/01/06 12:43:27;;;;;;;4.60;2.00;;;21.60;38.20;;;;;;5086149;28;20412;-66
2022/01/06 12:46:12;;;;;;;4.78;2.08;;;21.60;38.10;;;;;;5072662;28;20034;-67
2022/01/06 12:48:43;;;;;;;6.22;2.28;;;21.60;37.90;;;;;;5077355;28;20028;-68
2022/01/06 12:51:16;;;;;;;6.75;2.33;;;21.50;38.00;;;;;;5081228;28;20031;-68
2022/01/06 12:53:44;;;;;;;7.28;2.25;;;21.60;37.90;;;;;;5080468;28;20024;-68
2022/01/06 12:56:32;;;;;;;4.88;1.90;;;21.50;37.90;;;;;;5082390;28;20370;-68
2022/01/06 12:59:01;;;;;;;4.78;2.08;;;21.60;37.70;;;;;;5077963;28;20037;-66
2022/01/06 13:01:28;;;;;;;6.60;2.35;;;21.60;38.00;;;;;;5082021;28;20028;-66